Time;durP1;ratioP1;P1;durP2;ratioP2;P2;SDS_P1;SDS_P2;PMS_P1;PMS_P2;Temp;Humidity;BMP_temperature;BMP_pressure;BME280_temperature;BME280_humidity;BME280_pressure;Samples;Min_cycle;Max_cycle;Signal;HPM_P1;HPM_P2
2023/07/20 00:02:00;;;;;;;10.57;9.57;;;20.20;99.90;;;;;;4990007;28;20462;-60
2023/07/20 00:04:26;;;;;;;11.23;10.30;;;20.20;99.90;;;;;;4982011;28;20255;-60
2023/07/20 00:06:51;;;;;;;10.40;9.40;;;20.10;99.90;;;;;;4991662;28;20275;-60
2023/07/20 00:09:17;;;;;;;10.83;9.93;;;20.10;99.90;;;;;;4991429;28;20180;-61
2023/07/20 00:11:53;;;;;;;10.40;9.50;;;20.10;99.90;;;;;;4990917;28;20917;-60
2023/07/20 00:14:19;;;;;;;11.70;10.70;;;20.10;99.90;;;;;;4991285;28;20194;-61
2023/07/20 00:16:46;;;;;;;11.27;10.27;;;20.10;99.90;;;;;;4988947;28;20446;-60
2023/07/20 00:19:12;;;;;;;11.63;10.63;;;20.10;99.90;;;;;;4994531;28;20466;-61
2023/07/20 00:21:40;;;;;;;11.10;10.20;;;20.10;99.90;;;;;;4993343;28;20466;-60
2023/07/20 00:24:06;;;;;;;11.97;10.70;;;20.10;99.90;;;;;;4988827;28;20516;-60
2023/07/20 00:26:31;;;;;;;12.10;11.20;;;20.10;99.90;;;;;;4985016;28;20467;-60
2023/07/20 00:28:57;;;;;;;11.50;10.57;;;20.10;99.90;;;;;;4994373;28;20434;-60
2023/07/20 00:31:23;;;;;;;12.37;11.10;;;20.10;99.90;;;;;;4986494;28;20274;-60
2023/07/20 00:33:49;;;;;;;11.53;10.53;;;20.10;99.90;;;;;;4986423;28;20183;-60
2023/07/20 00:36:14;;;;;;;12.23;11.23;;;20.10;99.90;;;;;;4992053;28;20691;-60
2023/07/20 00:38:40;;;;;;;11.27;10.23;;;20.10;99.90;;;;;;4992465;28;20202;-60
2023/07/20 00:41:06;;;;;;;11.67;10.57;;;20.10;99.90;;;;;;4992839;28;20223;-60
2023/07/20 00:43:32;;;;;;;11.87;10.77;;;20.10;99.90;;;;;;4992395;28;20801;-60
2023/07/20 00:45:58;;;;;;;11.90;10.90;;;20.10;99.90;;;;;;4993873;28;20183;-61
2023/07/20 00:48:23;;;;;;;12.00;10.80;;;20.10;99.90;;;;;;4993215;28;20184;-60
2023/07/20 00:50:50;;;;;;;11.43;10.47;;;20.10;99.90;;;;;;4992114;28;20184;-61
2023/07/20 00:53:16;;;;;;;11.60;10.63;;;20.20;99.90;;;;;;4992616;28;20523;-61
2023/07/20 00:55:42;;;;;;;12.40;11.20;;;20.10;99.90;;;;;;4991272;28;20438;-60
2023/07/20 00:58:08;;;;;;;11.10;10.10;;;20.10;99.90;;;;;;4994037;28;20427;-60
2023/07/20 01:00:34;;;;;;;13.20;11.40;;;20.10;99.90;;;;;;4992913;28;20203;-60
2023/07/20 01:02:59;;;;;;;11.70;10.80;;;20.10;99.90;;;;;;4993316;28;20437;-60
2023/07/20 01:05:43;;;;;;;12.43;10.93;;;20.10;99.90;;;;;;4989689;28;20187;-60
2023/07/20 01:08:24;;;;;;;12.07;10.90;;;20.10;99.90;;;;;;4994071;28;20221;-60
2023/07/20 01:11:06;;;;;;;11.80;10.70;;;20.10;99.90;;;;;;4974866;28;20888;-61
2023/07/20 01:13:32;;;;;;;11.17;10.17;;;20.10;99.90;;;;;;4984225;28;20434;-60
2023/07/20 01:16:02;;;;;;;11.17;10.20;;;20.10;99.90;;;;;;4982916;28;20431;-61
2023/07/20 01:18:28;;;;;;;12.00;10.90;;;20.00;99.90;;;;;;4991239;28;20434;-60
2023/07/20 01:21:01;;;;;;;12.47;11.27;;;20.10;99.90;;;;;;4991429;28;20477;-62
2023/07/20 01:23:35;;;;;;;11.17;10.13;;;20.10;99.90;;;;;;4993115;28;20532;-61
2023/07/20 01:26:37;;;;;;;11.33;9.80;;;20.10;99.90;;;;;;4990822;28;20430;-61
2023/07/20 01:29:30;;;;;;;9.80;9.10;;;20.10;99.90;;;;;;5005882;28;20806;-61
2023/07/20 01:31:57;;;;;;;10.90;10.07;;;20.10;99.90;;;;;;4992025;28;20446;-61
2023/07/20 01:34:26;;;;;;;10.43;9.53;;;20.10;99.90;;;;;;4991296;28;20434;-61
2023/07/20 01:36:54;;;;;;;10.33;9.60;;;20.00;99.90;;;;;;4974334;28;20459;-61
2023/07/20 01:39:21;;;;;;;10.53;9.63;;;20.00;99.90;;;;;;4988380;28;20457;-61
2023/07/20 01:41:47;;;;;;;10.37;9.53;;;20.00;99.90;;;;;;4991221;28;20581;-60
2023/07/20 01:44:13;;;;;;;11.50;10.50;;;20.00;99.90;;;;;;4993864;28;20850;-60
2023/07/20 01:46:39;;;;;;;12.23;11.17;;;20.00;99.90;;;;;;4986327;28;20493;-60
2023/07/20 01:49:08;;;;;;;12.60;11.00;;;20.00;99.90;;;;;;4990217;28;20431;-60
2023/07/20 01:51:34;;;;;;;12.00;10.80;;;20.00;99.90;;;;;;4991970;28;20477;-60
2023/07/20 01:54:00;;;;;;;10.13;9.23;;;20.00;99.90;;;;;;4991406;28;20180;-61
2023/07/20 01:56:26;;;;;;;11.00;10.10;;;20.00;99.90;;;;;;4991550;28;20188;-59
2023/07/20 01:58:52;;;;;;;11.13;10.07;;;19.90;99.90;;;;;;4993622;28;20411;-60
2023/07/20 02:01:18;;;;;;;10.60;9.70;;;19.90;99.90;;;;;;4992212;28;20555;-61
2023/07/20 02:03:43;;;;;;;10.80;9.90;;;19.90;99.90;;;;;;4991556;28;20522;-60
2023/07/20 02:06:09;;;;;;;11.53;10.50;;;19.90;99.90;;;;;;4993341;28;20183;-60
2023/07/20 02:08:35;;;;;;;11.30;10.30;;;19.90;99.90;;;;;;4991555;28;20209;-60
2023/07/20 02:11:01;;;;;;;11.67;10.57;;;19.90;99.90;;;;;;4989851;28;20188;-60
2023/07/20 02:13:27;;;;;;;10.23;9.47;;;19.90;99.90;;;;;;4973916;28;20974;-60
2023/07/20 02:15:52;;;;;;;10.87;9.87;;;19.90;99.90;;;;;;4974754;28;20625;-60
2023/07/20 02:18:18;;;;;;;11.60;10.43;;;19.80;99.90;;;;;;4983506;28;20211;-60
2023/07/20 02:20:44;;;;;;;11.33;10.43;;;19.80;99.90;;;;;;4991379;28;20691;-60
2023/07/20 02:23:11;;;;;;;13.30;12.03;;;19.80;99.90;;;;;;4993317;28;20187;-60
2023/07/20 02:25:37;;;;;;;11.80;10.80;;;19.80;99.90;;;;;;4984771;28;20435;-60
2023/07/20 02:28:07;;;;;;;12.80;11.50;;;19.80;99.90;;;;;;4979490;28;20866;-60
2023/07/20 02:30:32;;;;;;;13.40;12.00;;;19.80;99.90;;;;;;4991190;28;20513;-60
2023/07/20 02:32:58;;;;;;;13.57;11.90;;;19.80;99.90;;;;;;4990690;28;20530;-60
2023/07/20 02:35:24;;;;;;;14.40;13.10;;;19.80;99.90;;;;;;4991595;28;20612;-60
2023/07/20 02:37:50;;;;;;;12.57;11.50;;;19.80;99.90;;;;;;4989989;28;20246;-60
2023/07/20 02:40:15;;;;;;;12.80;11.60;;;19.80;99.90;;;;;;4992397;28;20430;-60
2023/07/20 02:42:41;;;;;;;12.00;10.90;;;19.70;99.90;;;;;;4991263;28;20540;-60
2023/07/20 02:45:07;;;;;;;12.40;11.40;;;19.80;99.90;;;;;;4991438;28;20237;-60
2023/07/20 02:47:36;;;;;;;13.07;11.90;;;19.80;99.90;;;;;;4990826;28;20540;-60
2023/07/20 02:50:01;;;;;;;11.93;10.97;;;19.70;99.90;;;;;;4990261;28;20434;-61
2023/07/20 02:52:27;;;;;;;11.73;10.70;;;19.70;99.90;;;;;;4991482;28;20426;-60
2023/07/20 02:54:53;;;;;;;11.40;10.40;;;19.70;99.90;;;;;;4990901;28;20209;-60
2023/07/20 02:57:19;;;;;;;13.03;11.77;;;19.70;99.90;;;;;;4991141;28;20192;-61
2023/07/20 02:59:44;;;;;;;11.33;10.23;;;19.70;99.90;;;;;;4981362;28;20187;-60
2023/07/20 03:02:10;;;;;;;10.70;9.70;;;19.70;99.90;;;;;;4991473;28;20204;-60
2023/07/20 03:04:39;;;;;;;9.47;8.63;;;19.70;99.90;;;;;;4991270;28;20180;-60
2023/07/20 03:07:05;;;;;;;8.87;8.07;;;19.60;99.90;;;;;;4990941;28;20242;-60
2023/07/20 03:09:31;;;;;;;9.90;9.00;;;19.60;99.90;;;;;;4990792;28;20431;-60
2023/07/20 03:11:56;;;;;;;8.70;8.10;;;19.60;99.90;;;;;;4990299;28;20965;-60
2023/07/20 03:14:23;;;;;;;8.07;7.47;;;19.60;99.90;;;;;;4990182;28;20179;-60
2023/07/20 03:16:49;;;;;;;7.63;7.03;;;19.60;99.90;;;;;;4991069;28;20183;-60
2023/07/20 03:19:15;;;;;;;7.67;7.00;;;19.60;99.90;;;;;;4991836;28;20465;-60
2023/07/20 03:21:41;;;;;;;6.37;5.77;;;19.50;99.90;;;;;;4991813;28;20258;-60
2023/07/20 03:24:08;;;;;;;6.20;5.80;;;19.50;99.90;;;;;;4991355;28;20183;-60
2023/07/20 03:26:34;;;;;;;6.17;5.67;;;19.50;99.90;;;;;;4991005;28;20434;-58
2023/07/20 03:29:00;;;;;;;6.07;5.67;;;19.50;99.90;;;;;;4991754;28;20868;-61
2023/07/20 03:31:26;;;;;;;5.70;5.30;;;19.40;99.90;;;;;;4990660;28;20521;-61
2023/07/20 03:33:52;;;;;;;6.77;6.27;;;19.40;99.90;;;;;;4990292;28;20477;-59
2023/07/20 03:36:20;;;;;;;8.17;7.53;;;19.50;99.90;;;;;;4990448;28;20235;-60
2023/07/20 03:38:46;;;;;;;6.87;6.37;;;19.50;99.90;;;;;;4990850;28;20804;-59
2023/07/20 03:41:11;;;;;;;7.97;7.27;;;19.50;99.90;;;;;;4991415;28;20463;-60
2023/07/20 03:43:40;;;;;;;8.13;7.53;;;19.50;99.90;;;;;;4990565;28;20179;-60
2023/07/20 03:46:06;;;;;;;7.93;7.23;;;19.50;99.90;;;;;;4976626;28;20176;-60
2023/07/20 03:48:33;;;;;;;8.43;7.73;;;19.50;99.90;;;;;;4986821;28;20427;-60
2023/07/20 03:51:00;;;;;;;8.83;8.00;;;19.50;99.90;;;;;;4993317;28;20434;-60
2023/07/20 03:53:26;;;;;;;9.03;7.93;;;19.50;99.90;;;;;;4994529;28;20497;-60
2023/07/20 03:55:53;;;;;;;8.93;8.23;;;19.50;99.90;;;;;;4994199;28;20481;-60
2023/07/20 03:58:19;;;;;;;10.17;9.10;;;19.50;99.90;;;;;;4993954;28;20946;-60
2023/07/20 04:00:50;;;;;;;9.00;8.20;;;19.50;99.90;;;;;;4989656;28;20558;-60
2023/07/20 04:03:17;;;;;;;9.87;8.97;;;19.50;99.90;;;;;;4995553;28;20418;-60
2023/07/20 04:05:44;;;;;;;10.73;9.73;;;19.50;99.90;;;;;;4993684;28;20500;-60
2023/07/20 04:08:11;;;;;;;11.97;10.87;;;19.50;99.90;;;;;;4994415;28;20434;-60
2023/07/20 04:10:37;;;;;;;11.20;10.20;;;19.50;99.90;;;;;;4993298;28;20804;-60
2023/07/20 04:13:03;;;;;;;11.37;10.33;;;19.60;99.90;;;;;;4995056;28;20507;-61
2023/07/20 04:15:30;;;;;;;11.93;10.93;;;19.50;99.90;;;;;;4993844;28;20431;-60
2023/07/20 04:17:56;;;;;;;12.37;11.27;;;19.50;99.90;;;;;;4991688;28;20580;-60
2023/07/20 04:20:23;;;;;;;13.67;12.53;;;19.50;99.90;;;;;;4992653;28;20438;-60
2023/07/20 04:22:49;;;;;;;13.03;11.83;;;19.60;99.90;;;;;;4993089;28;20435;-59
2023/07/20 04:25:15;;;;;;;14.40;12.27;;;19.50;99.90;;;;;;4995040;28;20470;-60
2023/07/20 04:27:41;;;;;;;12.90;11.60;;;19.50;99.90;;;;;;4990369;28;20517;-60
2023/07/20 04:30:09;;;;;;;13.97;12.67;;;19.50;99.90;;;;;;4990482;28;20525;-60
2023/07/20 04:32:34;;;;;;;13.70;12.50;;;19.60;99.90;;;;;;4990241;28;20603;-59
2023/07/20 04:35:00;;;;;;;15.43;13.93;;;19.60;99.90;;;;;;4994325;28;20510;-59
2023/07/20 04:37:26;;;;;;;15.73;14.33;;;19.50;99.90;;;;;;4988354;28;20188;-59
2023/07/20 04:39:52;;;;;;;17.27;15.63;;;19.60;99.90;;;;;;4991726;28;20647;-59
2023/07/20 04:42:18;;;;;;;18.57;16.60;;;19.50;99.90;;;;;;4989686;28;20215;-60
2023/07/20 04:44:44;;;;;;;18.17;16.47;;;19.50;99.90;;;;;;4993603;28;20191;-59
2023/07/20 04:47:09;;;;;;;17.80;15.90;;;19.40;99.90;;;;;;4993342;28;20791;-59
2023/07/20 04:49:35;;;;;;;17.07;15.47;;;19.50;99.90;;;;;;4992914;28;20931;-59
2023/07/20 04:52:02;;;;;;;18.07;16.37;;;19.50;99.90;;;;;;4989796;28;20185;-60
2023/07/20 04:54:28;;;;;;;17.73;15.80;;;19.50;99.90;;;;;;4986544;28;20179;-59
2023/07/20 04:56:54;;;;;;;17.17;15.67;;;19.50;99.90;;;;;;4992961;28;20477;-59
2023/07/20 04:59:20;;;;;;;18.07;16.37;;;19.50;99.90;;;;;;4994258;28;20636;-59
2023/07/20 05:01:46;;;;;;;17.70;16.20;;;19.50;99.90;;;;;;4988843;28;20467;-60
2023/07/20 05:04:12;;;;;;;16.50;14.77;;;19.50;99.90;;;;;;4993739;28;20267;-59
2023/07/20 05:06:38;;;;;;;17.17;15.37;;;19.50;99.90;;;;;;4994151;28;21099;-59
2023/07/20 05:09:07;;;;;;;18.77;16.00;;;19.50;99.90;;;;;;4992950;28;20219;-59
2023/07/20 05:11:33;;;;;;;16.53;14.93;;;19.50;99.90;;;;;;4993185;28;20953;-60
2023/07/20 05:14:00;;;;;;;16.53;14.83;;;19.50;99.90;;;;;;4992726;28;20398;-59
2023/07/20 05:16:25;;;;;;;14.93;13.53;;;19.50;99.90;;;;;;4992123;28;20269;-59
2023/07/20 05:18:51;;;;;;;16.30;14.67;;;19.50;99.90;;;;;;4991979;28;20510;-59
2023/07/20 05:21:17;;;;;;;17.20;15.60;;;19.50;99.90;;;;;;4994697;28;20660;-59
2023/07/20 05:23:43;;;;;;;18.97;17.07;;;19.60;99.90;;;;;;4992392;28;20431;-59
2023/07/20 05:26:09;;;;;;;17.00;15.40;;;19.60;99.90;;;;;;4985390;28;20210;-59
2023/07/20 05:28:34;;;;;;;17.70;16.00;;;19.70;99.90;;;;;;4975482;28;20629;-59
2023/07/20 05:31:03;;;;;;;18.30;16.50;;;19.60;99.90;;;;;;4991971;28;20179;-59
2023/07/20 05:33:28;;;;;;;19.17;17.50;;;19.70;99.90;;;;;;4993070;28;20211;-59
2023/07/20 05:35:54;;;;;;;18.20;16.70;;;19.70;99.90;;;;;;4991716;28;20517;-59
2023/07/20 05:38:20;;;;;;;18.30;16.70;;;19.80;99.90;;;;;;4991203;28;20192;-59
2023/07/20 05:40:46;;;;;;;17.30;15.73;;;19.80;99.90;;;;;;4990390;28;20704;-59
2023/07/20 05:43:13;;;;;;;16.97;15.50;;;19.90;99.90;;;;;;4993286;28;20176;-59
2023/07/20 05:45:43;;;;;;;15.77;14.27;;;19.90;99.90;;;;;;4993274;28;20800;-60
2023/07/20 05:48:12;;;;;;;19.43;17.87;;;20.00;99.90;;;;;;4992581;28;20442;-59
2023/07/20 05:50:42;;;;;;;16.10;14.70;;;20.00;99.90;;;;;;4992652;28;20445;-59
2023/07/20 05:53:08;;;;;;;15.97;14.47;;;20.00;99.90;;;;;;4993817;28;20430;-60
2023/07/20 05:55:33;;;;;;;17.20;15.70;;;20.00;99.90;;;;;;4992285;28;20973;-59
2023/07/20 05:57:59;;;;;;;17.30;15.90;;;20.00;99.90;;;;;;4990425;28;20198;-60
2023/07/20 06:00:26;;;;;;;18.20;16.30;;;20.00;99.90;;;;;;4980124;28;20180;-62
2023/07/20 06:02:54;;;;;;;15.57;14.17;;;20.00;99.90;;;;;;4992978;28;20411;-61
2023/07/20 06:05:21;;;;;;;14.77;13.43;;;20.10;99.90;;;;;;4988470;28;20431;-61
2023/07/20 06:07:47;;;;;;;16.73;15.33;;;20.10;99.90;;;;;;4990469;28;20429;-60
2023/07/20 06:10:13;;;;;;;16.10;14.70;;;20.10;99.90;;;;;;4991731;28;20442;-61
2023/07/20 06:12:38;;;;;;;14.20;13.00;;;20.10;99.90;;;;;;4992793;28;20218;-61
2023/07/20 06:15:05;;;;;;;13.90;12.80;;;20.10;99.90;;;;;;4991894;28;21010;-60
2023/07/20 06:17:31;;;;;;;11.83;10.73;;;20.20;99.90;;;;;;4993567;28;20175;-61
2023/07/20 06:19:59;;;;;;;14.27;13.17;;;20.20;99.90;;;;;;4990976;28;20784;-61
2023/07/20 06:22:25;;;;;;;12.93;11.87;;;20.20;99.90;;;;;;4990522;28;20469;-60
2023/07/20 06:24:51;;;;;;;11.07;10.17;;;20.20;99.90;;;;;;4992426;28;20415;-60
2023/07/20 06:27:16;;;;;;;13.13;12.03;;;20.20;99.90;;;;;;4991946;28;20262;-61
2023/07/20 06:29:42;;;;;;;10.47;9.67;;;20.20;99.90;;;;;;4992060;28;20176;-59
2023/07/20 06:32:08;;;;;;;11.60;10.60;;;20.30;99.90;;;;;;4986323;28;20209;-61
2023/07/20 06:34:36;;;;;;;10.53;9.77;;;20.30;99.90;;;;;;4991563;28;20539;-61
2023/07/20 06:37:04;;;;;;;9.70;8.97;;;20.30;99.90;;;;;;4991823;28;20430;-61
2023/07/20 06:39:30;;;;;;;8.90;8.20;;;20.30;99.90;;;;;;4991900;28;20496;-61
2023/07/20 06:41:56;;;;;;;9.70;8.80;;;20.40;99.90;;;;;;4989645;28;20470;-61
2023/07/20 06:44:23;;;;;;;9.33;8.50;;;20.40;99.90;;;;;;4991415;28;20517;-64
2023/07/20 06:46:48;;;;;;;7.73;7.03;;;20.40;99.90;;;;;;4990213;28;20438;-63
2023/07/20 06:49:25;;;;;;;8.60;7.93;;;20.90;99.90;;;;;;4991013;28;20191;-63
2023/07/20 06:51:51;;;;;;;7.90;7.30;;;21.40;99.90;;;;;;4991573;28;20234;-64
2023/07/20 06:54:17;;;;;;;8.93;8.13;;;21.60;99.90;;;;;;4980409;28;20451;-63
2023/07/20 06:56:43;;;;;;;8.03;7.43;;;21.70;99.90;;;;;;4976712;28;20678;-63
2023/07/20 06:59:11;;;;;;;8.90;8.30;;;22.10;99.90;;;;;;4992369;28;20168;-65
2023/07/20 07:01:36;;;;;;;7.77;7.17;;;22.10;99.90;;;;;;4989964;28;20610;-65
2023/07/20 07:04:03;;;;;;;8.70;8.10;;;22.30;99.90;;;;;;4987466;28;20435;-64
2023/07/20 07:06:29;;;;;;;6.77;6.20;;;22.40;99.90;;;;;;4981418;28;20181;-64
2023/07/20 07:08:55;;;;;;;7.40;6.80;;;22.60;99.90;;;;;;4990504;28;20441;-63
2023/07/20 07:11:21;;;;;;;7.87;7.27;;;22.60;99.90;;;;;;4991430;28;20656;-62
2023/07/20 07:13:49;;;;;;;7.80;7.17;;;22.60;99.90;;;;;;4991990;28;20186;-62
2023/07/20 07:16:18;;;;;;;6.20;5.80;;;22.40;99.90;;;;;;4991903;28;20441;-64
2023/07/20 07:18:48;;;;;;;4.87;4.47;;;22.30;99.90;;;;;;4991639;28;20423;-63
2023/07/20 07:21:14;;;;;;;5.53;5.23;;;22.10;99.90;;;;;;4990950;28;20454;-63
2023/07/20 07:23:40;;;;;;;302.27;235.57;;;22.00;99.90;;;;;;4991511;28;20493;-63
2023/07/20 07:26:05;;;;;;;120.07;90.57;;;21.80;99.90;;;;;;4991733;28;20431;-63
2023/07/20 07:28:34;;;;;;;25.13;22.40;;;21.70;99.90;;;;;;4991356;28;20417;-64
2023/07/20 07:31:00;;;;;;;13.20;11.80;;;21.60;99.90;;;;;;4991302;28;20242;-63
2023/07/20 07:33:26;;;;;;;207.27;160.77;;;21.60;99.90;;;;;;4990173;28;20983;-63
2023/07/20 07:35:54;;;;;;;107.23;85.70;;;21.60;99.90;;;;;;4993575;28;20489;-63
2023/07/20 07:38:20;;;;;;;10.93;9.93;;;21.60;99.90;;;;;;4991625;28;20425;-63
2023/07/20 07:40:46;;;;;;;4.87;4.57;;;21.70;99.90;;;;;;4990508;28;20448;-61
2023/07/20 07:43:13;;;;;;;6.60;6.30;;;21.60;99.90;;;;;;4987601;28;20191;-62
2023/07/20 07:45:40;;;;;;;4.87;4.60;;;21.60;99.90;;;;;;4992355;28;20172;-62
2023/07/20 07:48:06;;;;;;;4.57;4.20;;;21.50;99.90;;;;;;4990260;28;20955;-62
2023/07/20 07:50:33;;;;;;;4.30;4.00;;;21.50;99.90;;;;;;4994796;28;20790;-62
2023/07/20 07:52:59;;;;;;;4.33;4.03;;;21.50;99.90;;;;;;4995001;28;20429;-61
2023/07/20 07:55:28;;;;;;;4.10;3.90;;;21.50;99.90;;;;;;4990919;28;20517;-62
2023/07/20 07:57:54;;;;;;;4.57;4.37;;;21.70;99.90;;;;;;4991500;28;20473;-61
2023/07/20 08:00:20;;;;;;;33.43;29.90;;;21.70;99.90;;;;;;4991790;28;20469;-62
2023/07/20 08:02:48;;;;;;;314.97;246.23;;;21.70;99.90;;;;;;4990242;28;20473;-62
2023/07/20 08:05:14;;;;;;;152.80;136.07;;;21.70;99.90;;;;;;4986378;28;20446;-65
2023/07/20 08:07:40;;;;;;;12.03;11.03;;;21.80;99.90;;;;;;4990373;28;20426;-64
2023/07/20 08:10:06;;;;;;;4.73;4.40;;;21.80;99.90;;;;;;4991108;28;20944;-64
2023/07/20 08:12:32;;;;;;;4.20;4.00;;;21.80;99.90;;;;;;4991380;28;20514;-64
2023/07/20 08:14:58;;;;;;;7.03;4.80;;;21.80;99.90;;;;;;4993528;28;20469;-69
2023/07/20 08:17:24;;;;;;;4.93;4.70;;;21.80;99.90;;;;;;4986128;28;20419;-64
2023/07/20 08:19:50;;;;;;;6.87;3.47;;;21.90;99.90;;;;;;4994717;28;20187;-62
2023/07/20 08:22:16;;;;;;;4.17;3.97;;;22.00;99.90;;;;;;4993506;28;20567;-62
2023/07/20 08:24:42;;;;;;;2.50;2.40;;;22.10;99.90;;;;;;4995168;28;20272;-64
2023/07/20 08:27:08;;;;;;;3.23;2.93;;;22.20;99.90;;;;;;4993909;28;20191;-64
2023/07/20 08:29:35;;;;;;;4.00;3.70;;;22.30;99.90;;;;;;4993906;28;22470;-63
2023/07/20 08:32:02;;;;;;;4.07;3.77;;;22.40;99.90;;;;;;4992929;28;20425;-63
2023/07/20 08:34:28;;;;;;;4.00;3.80;;;22.50;99.90;;;;;;4992702;28;20470;-61
2023/07/20 08:36:53;;;;;;;3.40;3.20;;;22.50;99.90;;;;;;4992190;28;20466;-62
2023/07/20 08:39:22;;;;;;;2.80;2.70;;;22.40;99.90;;;;;;4994451;28;20199;-62
2023/07/20 08:41:48;;;;;;;3.17;3.00;;;22.30;99.90;;;;;;4993698;28;20652;-62
2023/07/20 08:44:14;;;;;;;3.33;3.13;;;22.30;99.90;;;;;;4992284;28;20430;-63
2023/07/20 08:46:42;;;;;;;3.53;3.23;;;22.20;99.90;;;;;;4992915;28;20834;-63
2023/07/20 08:49:08;;;;;;;3.37;3.20;;;22.00;99.90;;;;;;4992654;28;20476;-63
2023/07/20 08:51:35;;;;;;;3.53;3.33;;;22.00;99.90;;;;;;4993215;28;20501;-61
2023/07/20 08:54:02;;;;;;;3.50;3.30;;;21.90;99.90;;;;;;4992070;28;20911;-63
2023/07/20 08:56:28;;;;;;;3.83;3.53;;;21.90;99.90;;;;;;4990484;28;20458;-63
2023/07/20 08:58:55;;;;;;;3.30;3.10;;;21.90;99.90;;;;;;4986143;28;20795;-64
2023/07/20 09:01:22;;;;;;;2.77;2.67;;;22.00;99.90;;;;;;4994815;28;20954;-64
2023/07/20 09:03:48;;;;;;;3.90;3.70;;;22.20;99.90;;;;;;4994362;28;20517;-64
2023/07/20 09:06:14;;;;;;;2.67;2.57;;;22.40;99.90;;;;;;4993293;28;20434;-64
2023/07/20 09:08:41;;;;;;;3.13;3.03;;;22.60;99.90;;;;;;4994459;28;20419;-64
2023/07/20 09:11:08;;;;;;;3.93;3.73;;;22.80;99.90;;;;;;4994387;28;20188;-65
2023/07/20 09:13:34;;;;;;;3.67;3.47;;;23.00;99.70;;;;;;4992970;28;20431;-65
2023/07/20 09:16:00;;;;;;;3.20;3.10;;;23.20;99.90;;;;;;4992331;28;20403;-64
2023/07/20 09:18:27;;;;;;;2.43;2.33;;;23.30;99.40;;;;;;4992999;28;20422;-65
2023/07/20 09:21:03;;;;;;;3.50;3.40;;;23.30;97.00;;;;;;4992755;28;20294;-64
2023/07/20 09:23:36;;;;;;;3.20;3.10;;;23.30;97.10;;;;;;4993323;28;20510;-64
2023/07/20 09:26:16;;;;;;;3.13;3.03;;;23.20;98.60;;;;;;4992922;28;20430;-64
2023/07/20 09:29:12;;;;;;;2.90;2.80;;;23.10;97.00;;;;;;4993574;28;20403;-63
2023/07/20 09:31:40;;;;;;;3.37;3.23;;;23.10;98.00;;;;;;4991920;28;20438;-64
2023/07/20 09:34:07;;;;;;;3.20;3.10;;;23.00;97.50;;;;;;4993265;28;20424;-66
2023/07/20 09:36:38;;;;;;;2.23;2.13;;;23.00;97.10;;;;;;4992373;28;20970;-66
2023/07/20 09:39:04;;;;;;;3.53;3.43;;;22.90;97.20;;;;;;4991768;28;20434;-65
2023/07/20 09:41:40;;;;;;;3.30;3.20;;;22.90;97.90;;;;;;4991177;28;20541;-65
2023/07/20 09:44:08;;;;;;;3.47;3.27;;;23.00;97.20;;;;;;4988932;28;20434;-67
2023/07/20 09:46:47;;;;;;;3.10;3.00;;;23.00;97.40;;;;;;4992114;28;20454;-65
2023/07/20 09:49:14;;;;;;;3.87;3.70;;;23.00;97.20;;;;;;4992660;28;20438;-65
2023/07/20 09:51:44;;;;;;;3.37;3.27;;;23.00;96.50;;;;;;4992357;28;20919;-65
2023/07/20 09:54:11;;;;;;;3.80;2.73;;;23.00;97.30;;;;;;4993865;28;20395;-65
2023/07/20 09:56:39;;;;;;;2.90;2.80;;;23.00;97.40;;;;;;4993056;28;20454;-65
2023/07/20 09:59:05;;;;;;;2.83;2.73;;;23.20;99.50;;;;;;4992756;28;20422;-65
2023/07/20 10:01:32;;;;;;;2.57;2.47;;;23.30;99.40;;;;;;4994007;28;20459;-66
2023/07/20 10:04:01;;;;;;;2.60;2.50;;;23.40;96.60;;;;;;4992847;28;20179;-66
2023/07/20 10:06:30;;;;;;;3.07;2.97;;;23.30;94.50;;;;;;4993324;28;20951;-66
2023/07/20 10:09:02;;;;;;;3.60;3.50;;;23.40;95.00;;;;;;4993512;28;20495;-65
2023/07/20 10:11:31;;;;;;;3.27;3.07;;;23.30;93.30;;;;;;4993122;28;20437;-66
2023/07/20 10:13:59;;;;;;;2.80;2.70;;;23.30;95.00;;;;;;4992531;28;20521;-65
2023/07/20 10:16:36;;;;;;;3.80;3.60;;;23.50;96.00;;;;;;4992891;28;20411;-65
2023/07/20 10:19:13;;;;;;;3.43;3.30;;;23.60;94.90;;;;;;4992609;28;20422;-65
2023/07/20 10:21:44;;;;;;;2.90;2.80;;;23.60;93.80;;;;;;4992961;28;20857;-66
2023/07/20 10:24:11;;;;;;;3.47;3.27;;;23.50;92.90;;;;;;4988443;28;20430;-65
2023/07/20 10:26:37;;;;;;;3.50;3.40;;;23.30;94.20;;;;;;4992849;28;20442;-66
2023/07/20 10:29:04;;;;;;;3.20;3.00;;;23.30;93.70;;;;;;4992972;28;20415;-65
2023/07/20 10:31:30;;;;;;;3.43;3.23;;;23.50;94.00;;;;;;4992660;28;20431;-65
2023/07/20 10:33:57;;;;;;;3.60;3.50;;;23.60;94.20;;;;;;4992334;28;20482;-65
2023/07/20 10:36:27;;;;;;;3.00;2.90;;;23.90;93.30;;;;;;4993361;28;20455;-64
2023/07/20 10:38:57;;;;;;;3.53;3.33;;;24.00;90.30;;;;;;4992811;28;20442;-63
2023/07/20 10:41:33;;;;;;;3.70;3.60;;;24.20;90.00;;;;;;4992144;28;20458;-64
2023/07/20 10:44:09;;;;;;;3.83;3.73;;;24.40;91.00;;;;;;4990114;28;20525;-62
2023/07/20 10:46:47;;;;;;;3.30;3.10;;;24.50;86.00;;;;;;4989420;28;20484;-62
2023/07/20 10:49:15;;;;;;;3.30;3.20;;;24.50;86.90;;;;;;4990206;28;20418;-63
2023/07/20 10:51:48;;;;;;;4.33;3.93;;;24.50;86.40;;;;;;4992031;28;20442;-63
2023/07/20 10:54:16;;;;;;;3.67;3.57;;;24.30;87.10;;;;;;4991865;28;20439;-63
2023/07/20 10:56:43;;;;;;;3.60;3.50;;;24.20;88.40;;;;;;4993193;28;20419;-64
2023/07/20 10:59:38;;;;;;;3.90;3.60;;;24.10;87.50;;;;;;4991291;28;20434;-63
2023/07/20 11:02:08;;;;;;;3.20;3.10;;;24.20;89.20;;;;;;4991444;28;20463;-63
2023/07/20 11:04:44;;;;;;;79.13;69.67;;;24.20;87.70;;;;;;4991274;28;20896;-63
2023/07/20 11:07:09;;;;;;;16.63;15.03;;;24.40;85.50;;;;;;4990838;28;20439;-64
2023/07/20 11:09:37;;;;;;;4.40;4.20;;;24.60;89.10;;;;;;4991455;28;20437;-63
2023/07/20 11:12:17;;;;;;;3.93;3.80;;;24.70;87.90;;;;;;4989638;28;20202;-62
2023/07/20 11:14:54;;;;;;;4.67;4.47;;;24.70;84.90;;;;;;4991752;28;20488;-62
2023/07/20 11:17:22;;;;;;;4.30;4.10;;;24.70;84.70;;;;;;4973218;28;20388;-63
2023/07/20 11:19:56;;;;;;;3.90;3.70;;;24.80;86.50;;;;;;4984763;28;20845;-64
2023/07/20 11:22:22;;;;;;;4.13;3.93;;;24.80;80.90;;;;;;4990706;28;20462;-65
2023/07/20 11:24:49;;;;;;;4.43;4.23;;;24.80;79.20;;;;;;4991915;28;20407;-63
2023/07/20 11:27:15;;;;;;;3.87;3.70;;;24.70;81.40;;;;;;4989641;28;20442;-63
2023/07/20 11:29:41;;;;;;;3.73;3.63;;;24.80;83.00;;;;;;4992139;28;20414;-62
2023/07/20 11:32:07;;;;;;;3.27;3.17;;;24.80;82.10;;;;;;4971678;28;20426;-62
2023/07/20 11:34:35;;;;;;;4.20;4.00;;;24.90;82.90;;;;;;4981571;28;20971;-62
2023/07/20 11:37:02;;;;;;;3.87;3.73;;;24.90;82.10;;;;;;4991031;28;20438;-62
2023/07/20 11:39:29;;;;;;;3.83;3.63;;;24.90;82.00;;;;;;4977140;28;20517;-66
2023/07/20 11:41:56;;;;;;;14.87;13.37;;;25.10;85.20;;;;;;4992133;28;20458;-65
2023/07/20 11:44:26;;;;;;;307.13;273.20;;;25.20;84.50;;;;;;4991162;28;20426;-65
2023/07/20 11:47:12;;;;;;;9.83;8.83;;;25.50;86.70;;;;;;4991989;28;20854;-63
2023/07/20 11:49:43;;;;;;;4.17;3.97;;;25.70;78.40;;;;;;4990007;28;20430;-64
2023/07/20 11:52:11;;;;;;;4.60;4.40;;;25.80;77.40;;;;;;4991137;28;21167;-64
2023/07/20 11:54:40;;;;;;;4.30;4.00;;;25.90;77.80;;;;;;4992051;28;20383;-63
2023/07/20 11:57:06;;;;;;;4.33;4.13;;;26.10;76.50;;;;;;4990964;28;20451;-63
2023/07/20 11:59:32;;;;;;;4.30;4.10;;;26.10;76.00;;;;;;4991610;28;20958;-64
2023/07/20 12:02:03;;;;;;;5.57;5.37;;;26.10;77.20;;;;;;4991486;28;20648;-64
2023/07/20 12:04:29;;;;;;;5.80;5.50;;;26.00;74.70;;;;;;4991969;28;20477;-64
2023/07/20 12:06:55;;;;;;;4.67;4.30;;;25.90;70.30;;;;;;4991843;28;20462;-65
2023/07/20 12:09:21;;;;;;;4.17;3.97;;;25.80;76.30;;;;;;4991910;28;20403;-64
2023/07/20 12:11:49;;;;;;;4.50;4.30;;;25.70;77.50;;;;;;4992677;28;20180;-64
2023/07/20 12:14:15;;;;;;;4.50;4.30;;;25.80;77.20;;;;;;4995163;28;20819;-64
2023/07/20 12:16:41;;;;;;;5.60;5.30;;;25.90;77.20;;;;;;4996336;28;20490;-65
2023/07/20 12:19:13;;;;;;;4.70;4.40;;;25.90;74.30;;;;;;4994737;28;20469;-63
2023/07/20 12:21:42;;;;;;;4.80;4.50;;;26.00;75.20;;;;;;4993940;28;20591;-64
2023/07/20 12:24:10;;;;;;;5.40;5.00;;;26.00;72.90;;;;;;4993427;28;20411;-63
2023/07/20 12:26:35;;;;;;;4.50;4.30;;;26.10;73.60;;;;;;4994912;28;20407;-63
2023/07/20 12:29:04;;;;;;;4.80;4.60;;;26.00;71.90;;;;;;4993456;28;20915;-62
2023/07/20 12:31:30;;;;;;;4.90;4.70;;;25.90;69.50;;;;;;4995036;28;20439;-63
2023/07/20 12:33:57;;;;;;;5.50;5.20;;;25.60;70.70;;;;;;4996013;28;20422;-63
2023/07/20 12:36:24;;;;;;;5.53;5.23;;;25.50;71.40;;;;;;4994001;28;20466;-64
2023/07/20 12:38:50;;;;;;;5.67;5.37;;;25.40;72.60;;;;;;4994921;28;20438;-64
2023/07/20 12:41:16;;;;;;;4.53;4.33;;;25.30;72.40;;;;;;4994880;28;20946;-63